sensor_id;sensor_type;location;lat;lon;timestamp;P1;durP1;ratioP1;P2;durP2;ratioP2
52574;SDS011;38468;48.114;-1.684;2022-11-20T00:01:50;8.00;;;5.10;;
52574;SDS011;38468;48.114;-1.684;2022-11-20T00:03:51;7.78;;;4.80;;
52574;SDS011;38468;48.114;-1.684;2022-11-20T00:05:53;10.05;;;5.50;;
52574;SDS011;38468;48.114;-1.684;2022-11-20T00:07:54;10.73;;;5.20;;
52574;SDS011;38468;48.114;-1.684;2022-11-20T00:09:55;8.23;;;5.45;;
52574;SDS011;38468;48.114;-1.684;2022-11-20T00:11:55;8.68;;;5.03;;
52574;SDS011;38468;48.114;-1.684;2022-11-20T00:13:56;7.95;;;5.03;;
52574;SDS011;38468;48.114;-1.684;2022-11-20T00:15:59;13.30;;;5.47;;
52574;SDS011;38468;48.114;-1.684;2022-11-20T00:18:01;7.85;;;5.68;;
52574;SDS011;38468;48.114;-1.684;2022-11-20T00:20:02;6.18;;;4.38;;
52574;SDS011;38468;48.114;-1.684;2022-11-20T00:22:04;7.97;;;4.72;;
52574;SDS011;38468;48.114;-1.684;2022-11-20T00:24:05;9.60;;;5.22;;
52574;SDS011;38468;48.114;-1.684;2022-11-20T00:26:09;6.18;;;4.80;;
52574;SDS011;38468;48.114;-1.684;2022-11-20T00:28:13;7.57;;;4.47;;
52574;SDS011;38468;48.114;-1.684;2022-11-20T00:30:14;9.63;;;5.28;;
52574;SDS011;38468;48.114;-1.684;2022-11-20T00:32:15;12.13;;;5.00;;
52574;SDS011;38468;48.114;-1.684;2022-11-20T00:34:16;8.50;;;5.32;;
52574;SDS011;38468;48.114;-1.684;2022-11-20T00:36:18;13.57;;;5.20;;
52574;SDS011;38468;48.114;-1.684;2022-11-20T00:38:21;10.55;;;5.63;;
52574;SDS011;38468;48.114;-1.684;2022-11-20T00:40:22;6.55;;;4.80;;
52574;SDS011;38468;48.114;-1.684;2022-11-20T00:42:23;9.27;;;4.88;;
52574;SDS011;38468;48.114;-1.684;2022-11-20T00:44:24;8.27;;;5.38;;
52574;SDS011;38468;48.114;-1.684;2022-11-20T00:46:26;8.27;;;4.55;;
52574;SDS011;38468;48.114;-1.684;2022-11-20T00:48:28;10.35;;;4.47;;
52574;SDS011;38468;48.114;-1.684;2022-11-20T00:50:29;5.72;;;4.72;;
52574;SDS011;38468;48.114;-1.684;2022-11-20T00:52:31;9.40;;;4.93;;
52574;SDS011;38468;48.114;-1.684;2022-11-20T00:54:32;9.88;;;4.68;;
52574;SDS011;38468;48.114;-1.684;2022-11-20T00:56:33;10.68;;;5.20;;
52574;SDS011;38468;48.114;-1.684;2022-11-20T00:58:35;9.97;;;4.83;;
52574;SDS011;38468;48.114;-1.684;2022-11-20T01:00:37;10.55;;;5.18;;
52574;SDS011;38468;48.114;-1.684;2022-11-20T01:02:38;11.60;;;4.80;;
52574;SDS011;38468;48.114;-1.684;2022-11-20T01:04:40;9.43;;;5.07;;
52574;SDS011;38468;48.114;-1.684;2022-11-20T01:06:40;8.10;;;4.30;;
52574;SDS011;38468;48.114;-1.684;2022-11-20T01:08:44;12.75;;;5.38;;
52574;SDS011;38468;48.114;-1.684;2022-11-20T01:10:46;13.23;;;6.63;;
52574;SDS011;38468;48.114;-1.684;2022-11-20T01:12:46;8.50;;;4.85;;
52574;SDS011;38468;48.114;-1.684;2022-11-20T01:15:08;7.82;;;4.68;;
52574;SDS011;38468;48.114;-1.684;2022-11-20T01:17:08;9.30;;;4.70;;
52574;SDS011;38468;48.114;-1.684;2022-11-20T01:19:14;6.28;;;4.78;;
52574;SDS011;38468;48.114;-1.684;2022-11-20T01:21:17;10.18;;;5.03;;
52574;SDS011;38468;48.114;-1.684;2022-11-20T01:23:20;11.32;;;4.30;;
52574;SDS011;38468;48.114;-1.684;2022-11-20T01:25:20;7.68;;;4.03;;
52574;SDS011;38468;48.114;-1.684;2022-11-20T01:27:21;9.73;;;4.47;;
52574;SDS011;38468;48.114;-1.684;2022-11-20T01:29:22;6.78;;;4.13;;
52574;SDS011;38468;48.114;-1.684;2022-11-20T01:33:25;7.32;;;4.13;;
52574;SDS011;38468;48.114;-1.684;2022-11-20T01:35:26;8.20;;;3.67;;
52574;SDS011;38468;48.114;-1.684;2022-11-20T01:37:26;7.20;;;4.35;;
52574;SDS011;38468;48.114;-1.684;2022-11-20T01:39:27;9.20;;;3.80;;
52574;SDS011;38468;48.114;-1.684;2022-11-20T01:41:29;6.43;;;4.40;;
52574;SDS011;38468;48.114;-1.684;2022-11-20T01:43:49;8.73;;;4.10;;
52574;SDS011;38468;48.114;-1.684;2022-11-20T01:46:00;6.72;;;3.63;;
52574;SDS011;38468;48.114;-1.684;2022-11-20T01:48:04;14.70;;;3.83;;
52574;SDS011;38468;48.114;-1.684;2022-11-20T01:50:18;8.27;;;4.07;;
52574;SDS011;38468;48.114;-1.684;2022-11-20T01:52:29;7.60;;;3.60;;
52574;SDS011;38468;48.114;-1.684;2022-11-20T01:54:38;5.05;;;4.03;;
52574;SDS011;38468;48.114;-1.684;2022-11-20T01:56:47;4.93;;;3.67;;
52574;SDS011;38468;48.114;-1.684;2022-11-20T01:58:51;7.68;;;4.22;;
52574;SDS011;38468;48.114;-1.684;2022-11-20T02:00:56;8.23;;;3.63;;
52574;SDS011;38468;48.114;-1.684;2022-11-20T02:02:58;6.82;;;3.28;;
52574;SDS011;38468;48.114;-1.684;2022-11-20T02:05:04;6.45;;;3.58;;
52574;SDS011;38468;48.114;-1.684;2022-11-20T02:07:23;7.95;;;3.53;;
52574;SDS011;38468;48.114;-1.684;2022-11-20T02:09:24;7.50;;;3.92;;
52574;SDS011;38468;48.114;-1.684;2022-11-20T02:11:25;9.32;;;3.15;;
52574;SDS011;38468;48.114;-1.684;2022-11-20T02:13:26;6.88;;;3.15;;
52574;SDS011;38468;48.114;-1.684;2022-11-20T02:15:46;8.80;;;4.10;;
52574;SDS011;38468;48.114;-1.684;2022-11-20T02:17:47;6.93;;;3.03;;
52574;SDS011;38468;48.114;-1.684;2022-11-20T02:19:48;7.85;;;3.60;;
52574;SDS011;38468;48.114;-1.684;2022-11-20T02:22:05;6.55;;;3.08;;
52574;SDS011;38468;48.114;-1.684;2022-11-20T02:24:17;7.13;;;3.22;;
52574;SDS011;38468;48.114;-1.684;2022-11-20T02:26:19;7.22;;;3.15;;
52574;SDS011;38468;48.114;-1.684;2022-11-20T02:28:23;6.03;;;3.63;;
52574;SDS011;38468;48.114;-1.684;2022-11-20T02:30:25;9.05;;;3.30;;
52574;SDS011;38468;48.114;-1.684;2022-11-20T02:32:29;8.35;;;3.33;;
52574;SDS011;38468;48.114;-1.684;2022-11-20T02:34:32;5.55;;;2.80;;
52574;SDS011;38468;48.114;-1.684;2022-11-20T02:36:33;4.72;;;2.60;;
52574;SDS011;38468;48.114;-1.684;2022-11-20T02:38:35;5.90;;;2.85;;
52574;SDS011;38468;48.114;-1.684;2022-11-20T02:40:36;6.07;;;3.38;;
52574;SDS011;38468;48.114;-1.684;2022-11-20T02:42:37;8.55;;;2.63;;
52574;SDS011;38468;48.114;-1.684;2022-11-20T02:44:38;3.45;;;2.53;;
52574;SDS011;38468;48.114;-1.684;2022-11-20T02:46:38;5.85;;;2.78;;
52574;SDS011;38468;48.114;-1.684;2022-11-20T02:48:39;3.83;;;2.63;;
52574;SDS011;38468;48.114;-1.684;2022-11-20T02:50:40;6.47;;;2.65;;
52574;SDS011;38468;48.114;-1.684;2022-11-20T02:52:40;13.98;;;2.95;;
52574;SDS011;38468;48.114;-1.684;2022-11-20T02:54:41;12.35;;;3.42;;
52574;SDS011;38468;48.114;-1.684;2022-11-20T02:56:42;4.28;;;2.55;;
52574;SDS011;38468;48.114;-1.684;2022-11-20T02:58:43;8.13;;;3.20;;
52574;SDS011;38468;48.114;-1.684;2022-11-20T03:00:44;6.95;;;2.65;;
52574;SDS011;38468;48.114;-1.684;2022-11-20T03:02:44;4.32;;;3.65;;
52574;SDS011;38468;48.114;-1.684;2022-11-20T03:04:46;4.18;;;2.70;;
52574;SDS011;38468;48.114;-1.684;2022-11-20T03:06:46;6.85;;;2.72;;
52574;SDS011;38468;48.114;-1.684;2022-11-20T03:08:47;5.47;;;3.00;;
52574;SDS011;38468;48.114;-1.684;2022-11-20T03:10:48;6.57;;;2.75;;
52574;SDS011;38468;48.114;-1.684;2022-11-20T03:12:52;9.30;;;3.42;;
52574;SDS011;38468;48.114;-1.684;2022-11-20T03:14:56;7.50;;;3.80;;
52574;SDS011;38468;48.114;-1.684;2022-11-20T03:16:56;7.22;;;3.35;;
52574;SDS011;38468;48.114;-1.684;2022-11-20T03:18:57;7.60;;;3.15;;
52574;SDS011;38468;48.114;-1.684;2022-11-20T03:20:59;3.80;;;2.45;;
52574;SDS011;38468;48.114;-1.684;2022-11-20T03:23:00;4.63;;;2.38;;
52574;SDS011;38468;48.114;-1.684;2022-11-20T03:25:01;4.43;;;2.45;;
52574;SDS011;38468;48.114;-1.684;2022-11-20T03:27:01;4.68;;;2.80;;
52574;SDS011;38468;48.114;-1.684;2022-11-20T03:29:03;7.68;;;3.00;;
52574;SDS011;38468;48.114;-1.684;2022-11-20T03:31:05;8.75;;;2.25;;
52574;SDS011;38468;48.114;-1.684;2022-11-20T03:33:08;4.43;;;2.72;;
52574;SDS011;38468;48.114;-1.684;2022-11-20T03:35:08;6.93;;;2.80;;
52574;SDS011;38468;48.114;-1.684;2022-11-20T03:37:09;8.65;;;3.17;;
52574;SDS011;38468;48.114;-1.684;2022-11-20T03:39:10;6.78;;;2.75;;
52574;SDS011;38468;48.114;-1.684;2022-11-20T03:41:12;5.10;;;3.00;;
52574;SDS011;38468;48.114;-1.684;2022-11-20T03:43:15;6.43;;;2.65;;
52574;SDS011;38468;48.114;-1.684;2022-11-20T03:45:16;6.28;;;2.70;;
52574;SDS011;38468;48.114;-1.684;2022-11-20T03:47:18;6.10;;;3.05;;
52574;SDS011;38468;48.114;-1.684;2022-11-20T03:49:18;4.80;;;3.10;;
52574;SDS011;38468;48.114;-1.684;2022-11-20T03:51:23;6.70;;;3.28;;
52574;SDS011;38468;48.114;-1.684;2022-11-20T03:53:25;8.98;;;3.22;;
52574;SDS011;38468;48.114;-1.684;2022-11-20T03:55:26;10.77;;;2.88;;
52574;SDS011;38468;48.114;-1.684;2022-11-20T03:57:26;4.95;;;3.10;;
52574;SDS011;38468;48.114;-1.684;2022-11-20T03:59:27;6.25;;;2.90;;
52574;SDS011;38468;48.114;-1.684;2022-11-20T04:01:29;5.13;;;3.45;;
52574;SDS011;38468;48.114;-1.684;2022-11-20T04:03:31;6.07;;;3.17;;
52574;SDS011;38468;48.114;-1.684;2022-11-20T04:05:32;4.07;;;3.00;;
52574;SDS011;38468;48.114;-1.684;2022-11-20T04:07:33;4.55;;;3.15;;
52574;SDS011;38468;48.114;-1.684;2022-11-20T04:09:34;8.32;;;3.25;;
52574;SDS011;38468;48.114;-1.684;2022-11-20T04:11:36;7.63;;;3.30;;
52574;SDS011;38468;48.114;-1.684;2022-11-20T04:13:39;5.97;;;3.13;;
52574;SDS011;38468;48.114;-1.684;2022-11-20T04:15:41;5.40;;;3.05;;
52574;SDS011;38468;48.114;-1.684;2022-11-20T04:17:41;5.80;;;3.42;;
52574;SDS011;38468;48.114;-1.684;2022-11-20T04:19:42;5.50;;;3.10;;
52574;SDS011;38468;48.114;-1.684;2022-11-20T04:21:43;8.90;;;3.63;;
52574;SDS011;38468;48.114;-1.684;2022-11-20T04:23:44;4.40;;;3.40;;
52574;SDS011;38468;48.114;-1.684;2022-11-20T04:25:45;4.80;;;3.75;;
52574;SDS011;38468;48.114;-1.684;2022-11-20T04:27:45;5.88;;;3.40;;
52574;SDS011;38468;48.114;-1.684;2022-11-20T04:29:46;11.32;;;4.05;;
52574;SDS011;38468;48.114;-1.684;2022-11-20T04:31:47;7.28;;;3.60;;
52574;SDS011;38468;48.114;-1.684;2022-11-20T04:33:47;6.00;;;3.30;;
52574;SDS011;38468;48.114;-1.684;2022-11-20T04:35:48;7.07;;;3.83;;
52574;SDS011;38468;48.114;-1.684;2022-11-20T04:37:51;3.42;;;2.95;;
52574;SDS011;38468;48.114;-1.684;2022-11-20T04:39:52;5.10;;;3.40;;
52574;SDS011;38468;48.114;-1.684;2022-11-20T04:41:52;7.35;;;3.63;;
52574;SDS011;38468;48.114;-1.684;2022-11-20T04:44:13;9.15;;;4.15;;
52574;SDS011;38468;48.114;-1.684;2022-11-20T04:46:13;5.15;;;3.65;;
52574;SDS011;38468;48.114;-1.684;2022-11-20T04:48:14;5.03;;;3.92;;
52574;SDS011;38468;48.114;-1.684;2022-11-20T04:50:15;8.68;;;3.78;;
52574;SDS011;38468;48.114;-1.684;2022-11-20T04:52:16;4.53;;;3.67;;
52574;SDS011;38468;48.114;-1.684;2022-11-20T04:54:16;8.77;;;3.80;;
52574;SDS011;38468;48.114;-1.684;2022-11-20T04:56:17;4.32;;;3.55;;
52574;SDS011;38468;48.114;-1.684;2022-11-20T04:58:18;3.95;;;3.53;;
52574;SDS011;38468;48.114;-1.684;2022-11-20T05:00:18;4.95;;;3.92;;
52574;SDS011;38468;48.114;-1.684;2022-11-20T05:02:19;7.82;;;4.47;;
52574;SDS011;38468;48.114;-1.684;2022-11-20T05:04:20;8.80;;;3.90;;
52574;SDS011;38468;48.114;-1.684;2022-11-20T05:06:21;8.05;;;4.50;;
52574;SDS011;38468;48.114;-1.684;2022-11-20T05:08:22;5.20;;;4.07;;
52574;SDS011;38468;48.114;-1.684;2022-11-20T05:10:23;6.97;;;4.45;;
52574;SDS011;38468;48.114;-1.684;2022-11-20T05:12:25;8.02;;;5.03;;
52574;SDS011;38468;48.114;-1.684;2022-11-20T05:14:25;8.52;;;4.82;;
52574;SDS011;38468;48.114;-1.684;2022-11-20T05:16:26;6.88;;;4.53;;
52574;SDS011;38468;48.114;-1.684;2022-11-20T05:18:26;18.48;;;5.28;;
52574;SDS011;38468;48.114;-1.684;2022-11-20T05:20:27;8.55;;;4.05;;
52574;SDS011;38468;48.114;-1.684;2022-11-20T05:22:28;7.93;;;4.50;;
52574;SDS011;38468;48.114;-1.684;2022-11-20T05:24:28;7.90;;;4.88;;
52574;SDS011;38468;48.114;-1.684;2022-11-20T05:26:29;8.35;;;5.50;;
52574;SDS011;38468;48.114;-1.684;2022-11-20T05:28:30;7.38;;;4.88;;
52574;SDS011;38468;48.114;-1.684;2022-11-20T05:30:31;13.52;;;5.20;;
52574;SDS011;38468;48.114;-1.684;2022-11-20T05:32:32;5.10;;;4.60;;
52574;SDS011;38468;48.114;-1.684;2022-11-20T05:34:33;4.95;;;4.45;;
52574;SDS011;38468;48.114;-1.684;2022-11-20T05:36:34;10.05;;;5.43;;
52574;SDS011;38468;48.114;-1.684;2022-11-20T05:38:34;6.30;;;5.38;;
52574;SDS011;38468;48.114;-1.684;2022-11-20T05:40:35;9.60;;;6.03;;
52574;SDS011;38468;48.114;-1.684;2022-11-20T05:42:36;9.27;;;5.28;;
52574;SDS011;38468;48.114;-1.684;2022-11-20T05:44:36;9.48;;;5.88;;
52574;SDS011;38468;48.114;-1.684;2022-11-20T05:46:37;9.45;;;5.28;;
52574;SDS011;38468;48.114;-1.684;2022-11-20T05:48:38;9.40;;;5.45;;
52574;SDS011;38468;48.114;-1.684;2022-11-20T05:50:40;11.52;;;4.25;;
52574;SDS011;38468;48.114;-1.684;2022-11-20T05:52:40;7.97;;;4.57;;
52574;SDS011;38468;48.114;-1.684;2022-11-20T05:54:42;6.03;;;4.57;;
52574;SDS011;38468;48.114;-1.684;2022-11-20T05:56:42;6.80;;;5.15;;
52574;SDS011;38468;48.114;-1.684;2022-11-20T05:58:43;6.25;;;3.53;;
52574;SDS011;38468;48.114;-1.684;2022-11-20T06:00:44;3.63;;;3.38;;
52574;SDS011;38468;48.114;-1.684;2022-11-20T06:02:45;4.25;;;3.50;;
52574;SDS011;38468;48.114;-1.684;2022-11-20T06:04:45;5.45;;;4.15;;
52574;SDS011;38468;48.114;-1.684;2022-11-20T06:06:46;5.38;;;3.72;;
52574;SDS011;38468;48.114;-1.684;2022-11-20T06:08:47;4.55;;;3.60;;
52574;SDS011;38468;48.114;-1.684;2022-11-20T06:10:48;3.65;;;3.35;;
52574;SDS011;38468;48.114;-1.684;2022-11-20T06:12:48;3.80;;;3.40;;
52574;SDS011;38468;48.114;-1.684;2022-11-20T06:14:49;4.75;;;2.83;;
52574;SDS011;38468;48.114;-1.684;2022-11-20T06:16:49;2.78;;;2.35;;
52574;SDS011;38468;48.114;-1.684;2022-11-20T06:18:50;2.33;;;2.08;;
52574;SDS011;38468;48.114;-1.684;2022-11-20T06:20:58;2.30;;;2.10;;
52574;SDS011;38468;48.114;-1.684;2022-11-20T06:23:00;4.80;;;2.13;;
52574;SDS011;38468;48.114;-1.684;2022-11-20T06:25:00;1.70;;;1.60;;
52574;SDS011;38468;48.114;-1.684;2022-11-20T06:27:01;3.53;;;2.00;;
52574;SDS011;38468;48.114;-1.684;2022-11-20T06:29:02;1.52;;;1.42;;
52574;SDS011;38468;48.114;-1.684;2022-11-20T06:31:03;1.75;;;1.65;;
52574;SDS011;38468;48.114;-1.684;2022-11-20T06:33:04;1.45;;;1.40;;
52574;SDS011;38468;48.114;-1.684;2022-11-20T06:35:04;4.55;;;1.83;;
52574;SDS011;38468;48.114;-1.684;2022-11-20T06:37:05;3.33;;;1.25;;
52574;SDS011;38468;48.114;-1.684;2022-11-20T06:39:06;1.33;;;1.23;;
52574;SDS011;38468;48.114;-1.684;2022-11-20T06:41:08;1.50;;;1.40;;
52574;SDS011;38468;48.114;-1.684;2022-11-20T06:43:12;1.50;;;1.35;;
52574;SDS011;38468;48.114;-1.684;2022-11-20T06:45:12;1.00;;;1.00;;
52574;SDS011;38468;48.114;-1.684;2022-11-20T06:47:13;1.05;;;0.90;;
52574;SDS011;38468;48.114;-1.684;2022-11-20T06:49:14;1.75;;;0.90;;
52574;SDS011;38468;48.114;-1.684;2022-11-20T06:51:14;0.88;;;0.88;;
52574;SDS011;38468;48.114;-1.684;2022-11-20T06:53:16;1.20;;;1.10;;
52574;SDS011;38468;48.114;-1.684;2022-11-20T06:55:16;2.03;;;1.20;;
52574;SDS011;38468;48.114;-1.684;2022-11-20T06:57:17;1.35;;;1.25;;
52574;SDS011;38468;48.114;-1.684;2022-11-20T06:59:18;1.42;;;1.30;;
52574;SDS011;38468;48.114;-1.684;2022-11-20T07:01:18;1.15;;;1.10;;
52574;SDS011;38468;48.114;-1.684;2022-11-20T07:03:19;1.92;;;1.83;;
52574;SDS011;38468;48.114;-1.684;2022-11-20T07:05:20;1.45;;;1.35;;
52574;SDS011;38468;48.114;-1.684;2022-11-20T07:07:20;1.40;;;1.30;;
52574;SDS011;38468;48.114;-1.684;2022-11-20T07:09:21;1.88;;;1.52;;
52574;SDS011;38468;48.114;-1.684;2022-11-20T07:11:22;2.17;;;2.08;;
52574;SDS011;38468;48.114;-1.684;2022-11-20T07:13:23;2.00;;;1.90;;
52574;SDS011;38468;48.114;-1.684;2022-11-20T07:15:24;2.63;;;2.42;;
52574;SDS011;38468;48.114;-1.684;2022-11-20T07:17:25;2.95;;;2.50;;
52574;SDS011;38468;48.114;-1.684;2022-11-20T07:19:26;2.15;;;1.95;;
52574;SDS011;38468;48.114;-1.684;2022-11-20T07:21:26;2.42;;;2.22;;
52574;SDS011;38468;48.114;-1.684;2022-11-20T07:23:27;2.08;;;1.88;;
52574;SDS011;38468;48.114;-1.684;2022-11-20T07:25:28;2.20;;;2.00;;
52574;SDS011;38468;48.114;-1.684;2022-11-20T07:27:29;1.90;;;1.80;;
52574;SDS011;38468;48.114;-1.684;2022-11-20T07:29:30;2.47;;;2.28;;
52574;SDS011;38468;48.114;-1.684;2022-11-20T07:31:30;2.08;;;1.50;;
52574;SDS011;38468;48.114;-1.684;2022-11-20T07:33:31;1.13;;;1.13;;
52574;SDS011;38468;48.114;-1.684;2022-11-20T07:35:32;1.77;;;1.40;;
52574;SDS011;38468;48.114;-1.684;2022-11-20T07:37:36;1.75;;;1.63;;
52574;SDS011;38468;48.114;-1.684;2022-11-20T07:39:37;1.95;;;1.48;;
52574;SDS011;38468;48.114;-1.684;2022-11-20T07:41:37;2.28;;;1.58;;
52574;SDS011;38468;48.114;-1.684;2022-11-20T07:43:38;1.38;;;1.30;;
52574;SDS011;38468;48.114;-1.684;2022-11-20T07:45:39;1.83;;;1.42;;
52574;SDS011;38468;48.114;-1.684;2022-11-20T07:47:40;1.90;;;1.65;;
52574;SDS011;38468;48.114;-1.684;2022-11-20T07:49:40;1.50;;;1.40;;
52574;SDS011;38468;48.114;-1.684;2022-11-20T07:51:41;4.20;;;1.80;;
52574;SDS011;38468;48.114;-1.684;2022-11-20T07:53:41;2.05;;;1.88;;
52574;SDS011;38468;48.114;-1.684;2022-11-20T07:55:42;1.67;;;1.50;;
52574;SDS011;38468;48.114;-1.684;2022-11-20T07:57:43;1.63;;;1.52;;
52574;SDS011;38468;48.114;-1.684;2022-11-20T07:59:43;1.67;;;1.15;;
52574;SDS011;38468;48.114;-1.684;2022-11-20T08:01:45;1.90;;;1.48;;
52574;SDS011;38468;48.114;-1.684;2022-11-20T08:03:46;3.10;;;1.45;;
52574;SDS011;38468;48.114;-1.684;2022-11-20T08:05:47;1.88;;;1.10;;
52574;SDS011;38468;48.114;-1.684;2022-11-20T08:07:48;2.40;;;1.92;;
52574;SDS011;38468;48.114;-1.684;2022-11-20T08:09:48;1.38;;;1.17;;
52574;SDS011;38468;48.114;-1.684;2022-11-20T08:11:49;5.40;;;1.75;;
52574;SDS011;38468;48.114;-1.684;2022-11-20T08:14:08;4.40;;;1.50;;
52574;SDS011;38468;48.114;-1.684;2022-11-20T08:16:11;5.35;;;2.05;;
52574;SDS011;38468;48.114;-1.684;2022-11-20T08:18:12;5.25;;;2.65;;
52574;SDS011;38468;48.114;-1.684;2022-11-20T08:20:13;8.68;;;4.60;;
52574;SDS011;38468;48.114;-1.684;2022-11-20T08:22:13;6.32;;;3.63;;
52574;SDS011;38468;48.114;-1.684;2022-11-20T08:24:14;9.82;;;5.18;;
52574;SDS011;38468;48.114;-1.684;2022-11-20T08:26:15;6.35;;;4.50;;
52574;SDS011;38468;48.114;-1.684;2022-11-20T08:28:15;4.35;;;2.85;;
52574;SDS011;38468;48.114;-1.684;2022-11-20T08:30:16;5.30;;;3.45;;
52574;SDS011;38468;48.114;-1.684;2022-11-20T08:32:17;3.88;;;2.35;;
52574;SDS011;38468;48.114;-1.684;2022-11-20T08:34:17;4.47;;;2.08;;
52574;SDS011;38468;48.114;-1.684;2022-11-20T08:36:18;5.18;;;1.90;;
52574;SDS011;38468;48.114;-1.684;2022-11-20T08:38:19;7.30;;;2.63;;
52574;SDS011;38468;48.114;-1.684;2022-11-20T08:40:20;3.70;;;1.85;;
52574;SDS011;38468;48.114;-1.684;2022-11-20T08:42:20;6.55;;;2.92;;
52574;SDS011;38468;48.114;-1.684;2022-11-20T08:44:21;5.38;;;2.25;;
52574;SDS011;38468;48.114;-1.684;2022-11-20T08:46:22;7.10;;;2.40;;
52574;SDS011;38468;48.114;-1.684;2022-11-20T08:48:25;9.82;;;2.47;;
52574;SDS011;38468;48.114;-1.684;2022-11-20T08:50:25;7.05;;;2.72;;
52574;SDS011;38468;48.114;-1.684;2022-11-20T08:52:26;8.68;;;2.80;;
52574;SDS011;38468;48.114;-1.684;2022-11-20T08:54:26;10.43;;;3.30;;
52574;SDS011;38468;48.114;-1.684;2022-11-20T08:56:27;11.23;;;3.13;;
52574;SDS011;38468;48.114;-1.684;2022-11-20T08:58:28;9.10;;;3.33;;
52574;SDS011;38468;48.114;-1.684;2022-11-20T09:00:29;7.80;;;2.88;;
52574;SDS011;38468;48.114;-1.684;2022-11-20T09:02:29;8.52;;;2.88;;
52574;SDS011;38468;48.114;-1.684;2022-11-20T09:04:30;8.48;;;3.65;;
52574;SDS011;38468;48.114;-1.684;2022-11-20T09:06:31;12.23;;;3.53;;
52574;SDS011;38468;48.114;-1.684;2022-11-20T09:08:32;9.25;;;3.47;;
52574;SDS011;38468;48.114;-1.684;2022-11-20T09:10:33;14.38;;;4.88;;
52574;SDS011;38468;48.114;-1.684;2022-11-20T09:12:34;13.13;;;3.75;;
52574;SDS011;38468;48.114;-1.684;2022-11-20T09:14:34;12.65;;;4.47;;
52574;SDS011;38468;48.114;-1.684;2022-11-20T09:16:35;19.67;;;3.80;;
52574;SDS011;38468;48.114;-1.684;2022-11-20T09:18:36;14.75;;;4.20;;
52574;SDS011;38468;48.114;-1.684;2022-11-20T09:20:37;13.82;;;4.35;;
52574;SDS011;38468;48.114;-1.684;2022-11-20T09:22:39;13.15;;;4.00;;
52574;SDS011;38468;48.114;-1.684;2022-11-20T09:24:40;13.75;;;4.07;;
52574;SDS011;38468;48.114;-1.684;2022-11-20T09:26:40;12.65;;;5.00;;
52574;SDS011;38468;48.114;-1.684;2022-11-20T09:28:41;17.80;;;5.82;;
52574;SDS011;38468;48.114;-1.684;2022-11-20T09:30:41;16.08;;;5.35;;
52574;SDS011;38468;48.114;-1.684;2022-11-20T09:32:42;17.27;;;5.05;;
52574;SDS011;38468;48.114;-1.684;2022-11-20T09:34:43;26.60;;;5.43;;
52574;SDS011;38468;48.114;-1.684;2022-11-20T09:36:43;19.50;;;5.57;;
52574;SDS011;38468;48.114;-1.684;2022-11-20T09:38:45;19.42;;;7.38;;
52574;SDS011;38468;48.114;-1.684;2022-11-20T09:41:05;15.90;;;6.43;;
52574;SDS011;38468;48.114;-1.684;2022-11-20T09:43:10;17.05;;;6.15;;
52574;SDS011;38468;48.114;-1.684;2022-11-20T09:47:47;14.48;;;5.22;;
52574;SDS011;38468;48.114;-1.684;2022-11-20T09:52:00;21.15;;;6.63;;
52574;SDS011;38468;48.114;-1.684;2022-11-20T09:56:20;26.63;;;7.03;;
52574;SDS011;38468;48.114;-1.684;2022-11-20T09:58:32;21.08;;;5.35;;
52574;SDS011;38468;48.114;-1.684;2022-11-20T10:00:48;18.05;;;5.50;;
52574;SDS011;38468;48.114;-1.684;2022-11-20T10:05:06;27.05;;;7.80;;
52574;SDS011;38468;48.114;-1.684;2022-11-20T10:09:56;22.10;;;7.97;;
52574;SDS011;38468;48.114;-1.684;2022-11-20T10:17:02;28.52;;;8.30;;
52574;SDS011;38468;48.114;-1.684;2022-11-20T10:21:41;30.63;;;7.90;;
52574;SDS011;38468;48.114;-1.684;2022-11-20T10:26:26;29.58;;;7.85;;
52574;SDS011;38468;48.114;-1.684;2022-11-20T10:28:47;20.98;;;6.78;;
52574;SDS011;38468;48.114;-1.684;2022-11-20T10:31:11;24.55;;;9.00;;
52574;SDS011;38468;48.114;-1.684;2022-11-20T10:33:19;24.15;;;8.80;;
52574;SDS011;38468;48.114;-1.684;2022-11-20T10:35:34;27.30;;;8.88;;
52574;SDS011;38468;48.114;-1.684;2022-11-20T10:37:57;27.88;;;8.52;;
52574;SDS011;38468;48.114;-1.684;2022-11-20T10:40:17;26.02;;;7.13;;
52574;SDS011;38468;48.114;-1.684;2022-11-20T10:44:37;27.65;;;7.28;;
52574;SDS011;38468;48.114;-1.684;2022-11-20T10:47:03;23.67;;;6.40;;
52574;SDS011;38468;48.114;-1.684;2022-11-20T10:49:10;19.27;;;7.07;;
52574;SDS011;38468;48.114;-1.684;2022-11-20T10:53:58;21.35;;;6.50;;
52574;SDS011;38468;48.114;-1.684;2022-11-20T11:00:50;23.45;;;6.85;;
52574;SDS011;38468;48.114;-1.684;2022-11-20T11:02:54;17.48;;;5.68;;
52574;SDS011;38468;48.114;-1.684;2022-11-20T11:04:57;22.77;;;6.40;;
52574;SDS011;38468;48.114;-1.684;2022-11-20T11:07:07;20.85;;;6.03;;
52574;SDS011;38468;48.114;-1.684;2022-11-20T11:09:17;26.65;;;6.50;;
52574;SDS011;38468;48.114;-1.684;2022-11-20T11:11:24;19.48;;;6.20;;
52574;SDS011;38468;48.114;-1.684;2022-11-20T11:13:30;24.60;;;7.57;;
52574;SDS011;38468;48.114;-1.684;2022-11-20T11:15:40;19.98;;;6.60;;
52574;SDS011;38468;48.114;-1.684;2022-11-20T11:17:47;25.55;;;7.65;;
52574;SDS011;38468;48.114;-1.684;2022-11-20T11:20:01;25.65;;;6.85;;
52574;SDS011;38468;48.114;-1.684;2022-11-20T11:22:15;23.58;;;7.05;;
52574;SDS011;38468;48.114;-1.684;2022-11-20T11:24:22;21.38;;;6.50;;
52574;SDS011;38468;48.114;-1.684;2022-11-20T11:26:24;21.85;;;6.43;;
52574;SDS011;38468;48.114;-1.684;2022-11-20T11:28:28;21.45;;;6.10;;
52574;SDS011;38468;48.114;-1.684;2022-11-20T11:30:41;15.00;;;5.63;;
52574;SDS011;38468;48.114;-1.684;2022-11-20T11:32:43;20.77;;;6.18;;
52574;SDS011;38468;48.114;-1.684;2022-11-20T11:35:04;20.23;;;6.35;;
52574;SDS011;38468;48.114;-1.684;2022-11-20T11:37:19;19.45;;;6.18;;
52574;SDS011;38468;48.114;-1.684;2022-11-20T11:39:21;18.90;;;7.20;;
52574;SDS011;38468;48.114;-1.684;2022-11-20T11:43:28;23.40;;;5.78;;
52574;SDS011;38468;48.114;-1.684;2022-11-20T11:45:54;20.63;;;6.03;;
52574;SDS011;38468;48.114;-1.684;2022-11-20T11:48:00;20.00;;;5.40;;
52574;SDS011;38468;48.114;-1.684;2022-11-20T11:52:12;18.35;;;5.13;;
52574;SDS011;38468;48.114;-1.684;2022-11-20T11:54:28;16.85;;;4.95;;
52574;SDS011;38468;48.114;-1.684;2022-11-20T11:56:40;25.13;;;6.15;;
52574;SDS011;38468;48.114;-1.684;2022-11-20T12:01:07;18.98;;;5.45;;
52574;SDS011;38468;48.114;-1.684;2022-11-20T12:03:30;9.77;;;5.35;;
52574;SDS011;38468;48.114;-1.684;2022-11-20T12:05:42;14.88;;;8.35;;
52574;SDS011;38468;48.114;-1.684;2022-11-20T12:07:46;15.98;;;8.77;;
52574;SDS011;38468;48.114;-1.684;2022-11-20T12:09:52;13.55;;;4.65;;
52574;SDS011;38468;48.114;-1.684;2022-11-20T12:12:10;18.67;;;4.53;;
52574;SDS011;38468;48.114;-1.684;2022-11-20T12:16:45;11.55;;;3.80;;
52574;SDS011;38468;48.114;-1.684;2022-11-20T12:18:50;17.73;;;4.95;;
52574;SDS011;38468;48.114;-1.684;2022-11-20T12:30:17;14.77;;;4.15;;
52574;SDS011;38468;48.114;-1.684;2022-11-20T12:42:05;15.20;;;4.43;;
52574;SDS011;38468;48.114;-1.684;2022-11-20T12:44:01;20.50;;;6.05;;
52574;SDS011;38468;48.114;-1.684;2022-11-20T12:57:57;17.70;;;5.78;;
52574;SDS011;38468;48.114;-1.684;2022-11-20T13:00:10;17.05;;;5.30;;
52574;SDS011;38468;48.114;-1.684;2022-11-20T13:04:55;17.77;;;6.10;;
52574;SDS011;38468;48.114;-1.684;2022-11-20T13:07:09;24.65;;;9.82;;
52574;SDS011;38468;48.114;-1.684;2022-11-20T13:09:13;17.83;;;6.18;;
52574;SDS011;38468;48.114;-1.684;2022-11-20T13:15:56;17.63;;;5.63;;
52574;SDS011;38468;48.114;-1.684;2022-11-20T13:18:11;16.20;;;5.18;;
52574;SDS011;38468;48.114;-1.684;2022-11-20T13:20:14;22.52;;;5.43;;
52574;SDS011;38468;48.114;-1.684;2022-11-20T13:22:23;21.55;;;4.88;;
52574;SDS011;38468;48.114;-1.684;2022-11-20T13:24:29;14.30;;;4.03;;
52574;SDS011;38468;48.114;-1.684;2022-11-20T13:26:31;23.08;;;4.57;;
52574;SDS011;38468;48.114;-1.684;2022-11-20T13:28:32;12.82;;;3.20;;
52574;SDS011;38468;48.114;-1.684;2022-11-20T13:30:34;15.83;;;4.47;;